PWSweather.com
Personal Weather Stations
Station Observations
SWHWX01
St AppolinardFR 38160

St AppolinardFR 38160

Lat: 45.191, Lon: 5.268

Elevation: 1460

Station Type: Davis Vantage Pro2 Plus

Latest ConditionsUpdated 1:00:02 PM GMT+01:01 Friday, Jun 23, 2017
Currently Today's Max Today's Min Today's Average
Temperature 87.3°F30.7°C 87.3°F30.7°C 69.6°F20.9°C 76.3°F24.6°C
Dew Point 72.7°F22.6°C 72.7°F22.6°C 65.2°F18.4°C 68.3°F20.2°C
Winds 4.3 mph SSW6.9 kmh SSW 4.5 mph WSW7.2 kmh WSW - 1.9 mph 3.1 kmh
Wind Gusts 5.0 mph8.0 kmh 6.0 mph9.7 kmh - -
Humidity 62% 86% 62% 77%
Pressure 30.01 in1016.3 mb 30.05 in1017.6 mb 30.00 in1015.9 mb -
Hour Temp Dew Point Humidity Winds Wind Gusts Pressure Precip Precip Rate Daily Precip Total
01:00 PM 87.3°F30.7°C 72.7°F22.6°C 62% 4.3 mph SSW6.9 kmh SSW 5.0 mph8.0 kmh 30.01 in1016.3 mb - 0.00 in0.0 mm 0.00 in0.0 mm
12:30 PM 86.7°F30.4°C 72.1°F22.3°C 62% 0.4 mph SW0.6 kmh SW 2.0 mph3.2 kmh 30.02 in1016.6 mb - 0.00 in0.0 mm 0.00 in0.0 mm
12:00 PM 86.0°F30.0°C 72.4°F22.4°C 64% 3.2 mph SW5.1 kmh SW 5.0 mph8.0 kmh 30.02 in1016.6 mb - 0.00 in0.0 mm 0.00 in0.0 mm
11:30 AM 85.0°F29.4°C 71.9°F22.2°C 65% 0.9 mph WSW1.4 kmh WSW 3.0 mph4.8 kmh 30.03 in1016.9 mb - 0.00 in0.0 mm 0.00 in0.0 mm
11:00 AM 85.1°F29.5°C 71.5°F21.9°C 64% 0.5 mph WSW0.8 kmh WSW 3.0 mph4.8 kmh 30.03 in1016.9 mb - 0.00 in0.0 mm 0.00 in0.0 mm
10:30 AM 82.8°F28.2°C 71.6°F22.0°C 69% 3.0 mph WSW4.8 kmh WSW 4.0 mph6.4 kmh 30.04 in1017.3 mb - 0.00 in0.0 mm 0.00 in0.0 mm
10:00 AM 79.5°F26.4°C 70.5°F21.4°C 74% 3.1 mph WSW5.0 kmh WSW 5.0 mph8.0 kmh 30.05 in1017.6 mb - 0.00 in0.0 mm 0.00 in0.0 mm
09:30 AM 79.8°F26.6°C 70.8°F21.6°C 74% 3.2 mph WSW5.1 kmh WSW 5.0 mph8.0 kmh 30.05 in1017.6 mb - 0.00 in0.0 mm 0.00 in0.0 mm
09:00 AM 78.3°F25.7°C 69.8°F21.0°C 75% 2.9 mph WSW4.7 kmh WSW 4.0 mph6.4 kmh 30.05 in1017.6 mb - 0.00 in0.0 mm 0.00 in0.0 mm
08:30 AM 78.2°F25.7°C 68.9°F20.5°C 73% 2.9 mph WSW4.7 kmh WSW 5.0 mph8.0 kmh 30.05 in1017.6 mb - 0.00 in0.0 mm 0.00 in0.0 mm
08:00 AM 76.5°F24.7°C 69.5°F20.8°C 79% 0.4 mph WSW0.6 kmh WSW 1.0 mph1.6 kmh 30.04 in1017.3 mb - 0.00 in0.0 mm 0.00 in0.0 mm
07:30 AM 74.4°F23.6°C 67.8°F19.9°C 80% 1.4 mph WSW2.3 kmh WSW 2.0 mph3.2 kmh 30.04 in1017.3 mb - 0.00 in0.0 mm 0.00 in0.0 mm
07:00 AM 73.5°F23.1°C 68.0°F20.0°C 83% 0.1 mph WSW0.2 kmh WSW 1.0 mph1.6 kmh 30.03 in1016.9 mb - 0.00 in0.0 mm 0.00 in0.0 mm
06:30 AM 71.7°F22.1°C 66.9°F19.4°C 85% Calm Calm -- 30.02 in1016.6 mb - 0.00 in0.0 mm 0.00 in0.0 mm
06:00 AM 70.8°F21.6°C 66.0°F18.9°C 85% Calm Calm -- 30.01 in1016.3 mb - 0.00 in0.0 mm 0.00 in0.0 mm
05:30 AM 69.6°F20.9°C 65.2°F18.4°C 86% 0.8 mph WSW1.3 kmh WSW 1.0 mph1.6 kmh 30.02 in1016.6 mb - 0.00 in0.0 mm 0.00 in0.0 mm
05:00 AM 70.6°F21.4°C 65.9°F18.8°C 85% 0.1 mph WSW0.2 kmh WSW -- 30.01 in1016.3 mb - 0.00 in0.0 mm 0.00 in0.0 mm
04:30 AM 71.1°F21.7°C 65.4°F18.6°C 82% Calm Calm 2.0 mph3.2 kmh 30.00 in1015.9 mb - 0.00 in0.0 mm 0.00 in0.0 mm
04:00 AM 72.3°F22.4°C 66.1°F18.9°C 81% 0.8 mph WSW1.3 kmh WSW 3.0 mph4.8 kmh 30.00 in1015.9 mb - 0.00 in0.0 mm 0.00 in0.0 mm
03:30 AM 72.1°F22.3°C 65.9°F18.8°C 81% 1.5 mph WSW2.4 kmh WSW 4.0 mph6.4 kmh 30.00 in1015.9 mb - 0.00 in0.0 mm 0.00 in0.0 mm
03:00 AM 72.1°F22.3°C 65.9°F18.8°C 81% 0.6 mph WSW1.0 kmh WSW 2.0 mph3.2 kmh 30.00 in1015.9 mb - 0.00 in0.0 mm 0.00 in0.0 mm
02:30 AM 72.4°F22.4°C 66.2°F19.0°C 81% 3.8 mph WSW6.1 kmh WSW 5.0 mph8.0 kmh 30.00 in1015.9 mb - 0.00 in0.0 mm 0.00 in0.0 mm
02:00 AM 72.6°F22.6°C 66.1°F18.9°C 80% 2.8 mph WSW4.5 kmh WSW 4.0 mph6.4 kmh 30.00 in1015.9 mb - 0.00 in0.0 mm 0.00 in0.0 mm
01:30 AM 72.5°F22.5°C 66.3°F19.1°C 81% 3.5 mph WSW5.6 kmh WSW 6.0 mph9.7 kmh 30.00 in1015.9 mb - 0.00 in0.0 mm 0.00 in0.0 mm
01:00 AM 72.7°F22.6°C 66.5°F19.2°C 81% 4.5 mph WSW7.2 kmh WSW 6.0 mph9.7 kmh 30.01 in1016.3 mb - 0.00 in0.0 mm 0.00 in0.0 mm
12:30 AM 73.4°F23.0°C 66.8°F19.3°C 80% 3.8 mph WSW6.1 kmh WSW 6.0 mph9.7 kmh 30.02 in1016.6 mb - 0.00 in0.0 mm 0.00 in0.0 mm
12:00 AM 74.0°F23.3°C 67.0°F19.4°C 79% 3.0 mph WSW4.8 kmh WSW 5.0 mph8.0 kmh 30.02 in1016.6 mb - 0.00 in0.0 mm 0.00 in0.0 mm